Time;durP1;ratioP1;P1;durP2;ratioP2;P2;SDS_P1;SDS_P2;PMS_P1;PMS_P2;Temp;Humidity;BMP_temperature;BMP_pressure;BME280_temperature;BME280_humidity;BME280_pressure;Samples;Min_cycle;Max_cycle;Signal;HPM_P1;HPM_P2
2022/08/28 00:01:40;;;;;;;;;;;;;;;28.38;38.78;100342.31;5074850;28;1894;-46
2022/08/28 00:04:06;;;;;;;;;;;;;;;28.37;38.36;100351.47;5077064;28;1084;-48
2022/08/28 00:06:31;;;;;;;;;;;;;;;28.44;38.55;100349.66;5067993;28;1119;-45
2022/08/28 00:08:56;;;;;;;;;;;;;;;28.28;38.46;100347.25;5068133;28;1013;-48
2022/08/28 00:11:22;;;;;;;;;;;;;;;28.31;39.04;100347.66;5071726;28;1104;-45
2022/08/28 00:13:47;;;;;;;;;;;;;;;28.32;38.09;100357.47;5068968;28;1079;-46
2022/08/28 00:16:12;;;;;;;;;;;;;;;28.35;38.45;100357.09;5073635;28;1095;-49
2022/08/28 00:18:39;;;;;;;;;;;;;;;28.24;38.30;100360.34;5050807;28;1742;-45
2022/08/28 00:21:04;;;;;;;;;;;;;;;28.33;38.27;100364.56;5075234;28;1898;-47
2022/08/28 00:23:31;;;;;;;;;;;;;;;28.43;38.45;100368.75;5074613;28;1123;-50
2022/08/28 00:25:57;;;;;;;;;;;;;;;28.40;38.48;100366.47;5076507;28;1092;-45
2022/08/28 00:28:22;;;;;;;;;;;;;;;28.44;38.40;100362.34;5068545;28;1239;-47
2022/08/28 00:30:48;;;;;;;;;;;;;;;28.33;38.15;100361.00;5074066;28;1083;-50
2022/08/28 00:33:32;;;;;;;;;;;;;;;28.44;38.58;100359.63;5053529;28;1088;-45
2022/08/28 00:35:58;;;;;;;;;;;;;;;28.34;38.50;100360.81;5067605;28;1013;-48
2022/08/28 00:38:23;;;;;;;;;;;;;;;28.44;38.67;100362.34;5075219;28;1179;-49
2022/08/28 00:40:49;;;;;;;;;;;;;;;28.41;38.30;100360.84;5076821;28;1949;-52
2022/08/28 00:43:33;;;;;;;;;;;;;;;28.32;38.81;100359.31;5066175;28;1151;-45
2022/08/28 00:45:58;;;;;;;;;;;;;;;28.35;38.43;100354.38;5070259;28;1012;-45
2022/08/28 00:48:24;;;;;;;;;;;;;;;28.45;38.28;100356.72;5064196;28;2338;-46
2022/08/28 00:53:33;;;;;;;;;;;;;;;28.44;38.99;100346.94;5072489;28;946;-49
2022/08/28 00:56:00;;;;;;;;;;;;;;;28.46;38.42;100347.56;5070308;28;945;-49
2022/08/28 00:58:25;;;;;;;;;;;;;;;28.48;38.64;100345.50;5074586;28;1065;-49
2022/08/28 01:00:50;;;;;;;;;;;;;;;28.41;38.70;100346.50;5076666;28;1893;-51
2022/08/28 01:03:16;;;;;;;;;;;;;;;28.50;38.73;100344.44;5072455;28;1127;-49
2022/08/28 01:05:46;;;;;;;;;;;;;;;28.18;38.82;100339.47;5068746;28;929;-47
2022/08/28 01:08:12;;;;;;;;;;;;;;;28.02;38.22;100335.25;5066718;28;918;-50
2022/08/28 01:10:37;;;;;;;;;;;;;;;28.04;37.64;100344.84;5069775;28;1065;-47
2022/08/28 01:13:02;;;;;;;;;;;;;;;28.02;36.79;100346.06;5053685;28;1037;-45
2022/08/28 01:15:29;;;;;;;;;;;;;;;27.91;37.01;100344.75;5051974;28;1017;-49
2022/08/28 01:17:55;;;;;;;;;;;;;;;27.92;36.70;100344.56;5055309;28;2277;-50
2022/08/28 01:20:22;;;;;;;;;;;;;;;27.89;36.91;100354.94;5072053;28;1071;-47
2022/08/28 01:23:08;;;;;;;;;;;;;;;27.85;36.64;100355.34;5057267;28;1987;-47
2022/08/28 01:25:33;;;;;;;;;;;;;;;28.10;36.64;100354.00;5057904;28;1081;-46
2022/08/28 01:27:59;;;;;;;;;;;;;;;28.08;36.83;100359.63;5051711;28;1021;-46
2022/08/28 01:30:24;;;;;;;;;;;;;;;28.11;37.15;100355.69;5066632;28;1024;-47
2022/08/28 01:32:51;;;;;;;;;;;;;;;28.06;37.00;100352.75;5069523;28;1005;-46
2022/08/28 01:35:17;;;;;;;;;;;;;;;28.12;36.95;100349.25;5070499;28;993;-46
2022/08/28 01:37:43;;;;;;;;;;;;;;;28.09;37.17;100355.06;5071176;28;993;-48
2022/08/28 01:40:09;;;;;;;;;;;;;;;28.14;37.44;100352.59;5073445;28;985;-46
2022/08/28 01:42:38;;;;;;;;;;;;;;;28.13;37.30;100356.31;5069758;28;1889;-48
2022/08/28 01:45:03;;;;;;;;;;;;;;;28.19;37.01;100352.84;5069913;28;1016;-50
2022/08/28 01:47:29;;;;;;;;;;;;;;;28.21;37.21;100352.63;5067255;28;2436;-48
2022/08/28 01:49:54;;;;;;;;;;;;;;;28.30;37.11;100353.28;5070551;28;1036;-47
2022/08/28 01:52:19;;;;;;;;;;;;;;;28.20;37.68;100348.25;5073946;28;1024;-45
2022/08/28 01:54:45;;;;;;;;;;;;;;;28.13;37.54;100344.69;5072187;28;1174;-46
2022/08/28 01:57:10;;;;;;;;;;;;;;;28.13;37.99;100352.78;5075492;28;984;-48
2022/08/28 01:59:35;;;;;;;;;;;;;;;28.20;37.68;100342.84;5074170;28;1167;-48
2022/08/28 02:02:00;;;;;;;;;;;;;;;28.25;37.64;100348.47;5065708;28;1959;-47
2022/08/28 02:04:26;;;;;;;;;;;;;;;28.18;37.58;100348.44;5070908;28;1000;-46
2022/08/28 02:06:51;;;;;;;;;;;;;;;28.21;38.14;100350.75;5066508;28;1210;-47
2022/08/28 02:09:17;;;;;;;;;;;;;;;28.08;38.20;100347.97;5071797;28;1162;-46
2022/08/28 02:11:43;;;;;;;;;;;;;;;28.19;37.90;100341.16;5069468;28;1247;-47
2022/08/28 02:14:09;;;;;;;;;;;;;;;28.24;37.69;100344.94;5073706;28;1025;-48
2022/08/28 02:16:34;;;;;;;;;;;;;;;28.23;37.87;100340.56;5072691;28;1761;-48
2022/08/28 02:19:00;;;;;;;;;;;;;;;28.22;37.90;100340.75;5069804;28;1008;-46
2022/08/28 02:21:25;;;;;;;;;;;;;;;28.26;37.89;100347.44;5075370;28;1976;-49
2022/08/28 02:23:50;;;;;;;;;;;;;;;28.18;37.96;100345.75;5069853;28;944;-47
2022/08/28 02:26:16;;;;;;;;;;;;;;;28.16;37.92;100344.28;5073498;28;1032;-45
2022/08/28 02:28:42;;;;;;;;;;;;;;;28.20;37.90;100345.53;5074212;28;985;-48
2022/08/28 02:31:08;;;;;;;;;;;;;;;28.16;38.35;100347.78;5076491;28;1016;-49
2022/08/28 02:33:36;;;;;;;;;;;;;;;27.93;37.24;100350.78;5077218;28;1072;-46
2022/08/28 02:36:01;;;;;;;;;;;;;;;27.95;36.83;100362.25;5078693;28;981;-47
2022/08/28 02:38:28;;;;;;;;;;;;;;;27.91;37.00;100355.56;5079877;28;1032;-47
2022/08/28 02:40:53;;;;;;;;;;;;;;;27.91;36.74;100356.38;5079319;28;1964;-49
2022/08/28 02:43:18;;;;;;;;;;;;;;;27.93;36.40;100354.34;5077886;28;1083;-48
2022/08/28 02:45:44;;;;;;;;;;;;;;;27.92;36.44;100352.66;5079380;28;1020;-47
2022/08/28 02:48:09;;;;;;;;;;;;;;;28.04;36.81;100352.97;5070131;28;2341;-47
2022/08/28 02:50:34;;;;;;;;;;;;;;;27.89;36.65;100353.06;5080845;28;1079;-44
2022/08/28 02:53:00;;;;;;;;;;;;;;;27.91;36.56;100358.28;5080869;28;1171;-45
2022/08/28 02:55:26;;;;;;;;;;;;;;;27.69;36.02;100361.88;5077946;28;1072;-44
2022/08/28 02:57:53;;;;;;;;;;;;;;;27.60;35.90;100363.84;5074124;28;976;-49
2022/08/28 03:00:19;;;;;;;;;;;;;;;27.63;35.67;100368.00;5072895;28;961;-44
2022/08/28 03:02:45;;;;;;;;;;;;;;;27.74;35.47;100377.50;5077477;28;1902;-46
2022/08/28 03:05:10;;;;;;;;;;;;;;;27.69;35.39;100371.84;5074059;28;1286;-43
2022/08/28 03:07:35;;;;;;;;;;;;;;;27.73;35.00;100378.50;5073236;28;977;-51
2022/08/28 03:10:01;;;;;;;;;;;;;;;27.60;35.55;100379.22;5076495;28;1146;-48
2022/08/28 03:12:26;;;;;;;;;;;;;;;27.89;35.83;100381.97;5080397;28;1048;-51
2022/08/28 03:14:52;;;;;;;;;;;;;;;27.91;35.72;100377.19;5079999;28;1151;-49
2022/08/28 03:17:17;;;;;;;;;;;;;;;27.91;35.90;100379.91;5078482;28;2173;-48
2022/08/28 03:19:42;;;;;;;;;;;;;;;28.08;35.57;100385.81;5075394;28;957;-46
2022/08/28 03:22:08;;;;;;;;;;;;;;;27.97;35.89;100379.09;5070640;28;1906;-49
2022/08/28 03:24:33;;;;;;;;;;;;;;;28.18;35.38;100378.19;5076755;28;1028;-46
2022/08/28 03:27:00;;;;;;;;;;;;;;;28.20;35.73;100386.09;5074039;28;1035;-43
2022/08/28 03:29:26;;;;;;;;;;;;;;;28.06;35.75;100385.19;5077926;28;889;-49
2022/08/28 03:31:51;;;;;;;;;;;;;;;28.08;36.19;100389.38;5075523;28;1048;-53
2022/08/28 03:34:16;;;;;;;;;;;;;;;28.15;35.64;100378.59;5078813;28;985;-51
2022/08/28 03:36:42;;;;;;;;;;;;;;;28.20;36.37;100381.53;5078983;28;1518;-57
2022/08/28 03:39:08;;;;;;;;;;;;;;;28.28;36.50;100383.22;5077014;28;1190;-50
2022/08/28 03:41:33;;;;;;;;;;;;;;;28.13;36.73;100383.34;5078619;28;1972;-58
2022/08/28 03:43:59;;;;;;;;;;;;;;;27.48;37.98;100381.59;5067956;28;1001;-55
2022/08/28 03:46:24;;;;;;;;;;;;;;;27.23;38.65;100388.25;5075108;28;1155;-57
2022/08/28 03:48:49;;;;;;;;;;;;;;;27.34;39.45;100384.19;5074995;28;2550;-57
2022/08/28 03:51:15;;;;;;;;;;;;;;;26.86;40.69;100393.63;5077954;28;1111;-55
2022/08/28 03:53:41;;;;;;;;;;;;;;;26.88;40.99;100390.75;5053479;28;1155;-56
2022/08/28 03:56:07;;;;;;;;;;;;;;;27.13;40.09;100398.53;5060852;28;1390;-44
2022/08/28 03:58:32;;;;;;;;;;;;;;;27.49;38.83;100403.03;5066034;28;1141;-58
2022/08/28 04:00:57;;;;;;;;;;;;;;;27.68;38.71;100405.25;5063412;28;1973;-60
2022/08/28 04:03:23;;;;;;;;;;;;;;;27.41;38.88;100402.34;5065092;28;1183;-59
2022/08/28 04:05:48;;;;;;;;;;;;;;;27.50;39.49;100403.88;5075658;28;1009;-60
2022/08/28 04:08:16;;;;;;;;;;;;;;;27.46;39.88;100402.59;5062423;28;1200;-59
2022/08/28 04:10:42;;;;;;;;;;;;;;;27.45;39.90;100407.16;5058549;28;1376;-58
2022/08/28 04:13:08;;;;;;;;;;;;;;;27.53;40.05;100397.25;5073623;28;970;-55
2022/08/28 04:15:33;;;;;;;;;;;;;;;27.58;39.59;100402.88;5071689;28;1001;-55
2022/08/28 04:17:59;;;;;;;;;;;;;;;27.69;38.89;100401.56;5071969;28;1763;-56
2022/08/28 04:20:25;;;;;;;;;;;;;;;27.72;39.17;100403.88;5065277;28;1207;-57
2022/08/28 04:22:50;;;;;;;;;;;;;;;27.57;39.17;100403.94;5055114;28;1902;-55
2022/08/28 04:25:15;;;;;;;;;;;;;;;27.65;39.38;100406.50;5070437;28;1055;-57
2022/08/28 04:27:41;;;;;;;;;;;;;;;27.59;39.10;100401.88;5074536;28;1107;-56
2022/08/28 04:30:06;;;;;;;;;;;;;;;27.64;39.28;100404.84;5072805;28;1451;-51
2022/08/28 04:32:35;;;;;;;;;;;;;;;27.65;39.21;100406.50;5062633;28;1128;-52
2022/08/28 04:35:00;;;;;;;;;;;;;;;27.64;39.32;100402.13;5075680;28;1111;-54
2022/08/28 04:37:26;;;;;;;;;;;;;;;27.57;39.16;100407.47;5076817;28;1092;-53
2022/08/28 04:39:51;;;;;;;;;;;;;;;27.69;38.73;100407.81;5071219;28;945;-57
2022/08/28 04:42:16;;;;;;;;;;;;;;;27.81;38.91;100409.97;5068118;28;1973;-59
2022/08/28 04:44:42;;;;;;;;;;;;;;;27.66;39.31;100413.56;5069598;28;1152;-56
2022/08/28 04:47:07;;;;;;;;;;;;;;;27.84;38.93;100409.59;5075226;28;1797;-53
2022/08/28 04:49:32;;;;;;;;;;;;;;;27.74;38.94;100409.94;5064123;28;2800;-53
2022/08/28 04:51:58;;;;;;;;;;;;;;;27.71;38.94;100408.44;5059631;28;1157;-53
2022/08/28 04:54:23;;;;;;;;;;;;;;;27.74;39.13;100407.22;5071303;28;1024;-55
2022/08/28 04:56:48;;;;;;;;;;;;;;;27.89;38.82;100411.69;5067992;28;866;-48
2022/08/28 04:59:13;;;;;;;;;;;;;;;27.97;38.73;100411.53;5073506;28;1116;-47
2022/08/28 05:01:39;;;;;;;;;;;;;;;27.94;38.24;100415.50;5070296;28;1898;-57
2022/08/28 05:04:05;;;;;;;;;;;;;;;27.87;38.69;100411.91;5074699;28;1024;-53
2022/08/28 05:06:30;;;;;;;;;;;;;;;27.90;38.68;100410.66;5071073;28;1467;-43
2022/08/28 05:08:56;;;;;;;;;;;;;;;27.88;38.86;100413.56;5060923;28;960;-45
2022/08/28 05:11:22;;;;;;;;;;;;;;;27.81;39.04;100415.38;5068946;28;1077;-49
2022/08/28 05:13:47;;;;;;;;;;;;;;;27.74;39.31;100416.16;5062336;28;1458;-45
2022/08/28 05:16:13;;;;;;;;;;;;;;;27.88;39.17;100413.56;5062937;28;1245;-43
2022/08/28 05:18:38;;;;;;;;;;;;;;;28.04;38.79;100414.28;5068603;28;1064;-45
2022/08/28 05:21:04;;;;;;;;;;;;;;;28.01;38.75;100409.28;5063084;28;1894;-46
2022/08/28 05:23:29;;;;;;;;;;;;;;;27.83;39.27;100408.75;5066647;28;1063;-41
2022/08/28 05:25:54;;;;;;;;;;;;;;;27.95;39.39;100410.91;5070254;28;1151;-50
2022/08/28 05:28:20;;;;;;;;;;;;;;;28.02;38.85;100416.34;5071770;28;1052;-47
2022/08/28 05:30:45;;;;;;;;;;;;;;;28.16;38.99;100412.69;5069342;28;1072;-46
2022/08/28 05:33:12;;;;;;;;;;;;;;;28.05;39.05;100414.09;5072985;28;1012;-50
2022/08/28 05:35:38;;;;;;;;;;;;;;;28.26;38.70;100417.75;5070465;28;992;-48
2022/08/28 05:38:03;;;;;;;;;;;;;;;28.25;38.72;100418.78;5073925;28;1004;-44
2022/08/28 05:40:29;;;;;;;;;;;;;;;28.41;38.11;100419.56;5054953;28;1131;-43
2022/08/28 05:42:54;;;;;;;;;;;;;;;28.54;38.02;100416.91;5073127;28;1975;-43
2022/08/28 05:45:21;;;;;;;;;;;;;;;28.46;37.63;100423.31;5073627;28;837;-45
2022/08/28 05:47:46;;;;;;;;;;;;;;;28.22;38.78;100424.59;5074123;28;1108;-44
2022/08/28 05:50:12;;;;;;;;;;;;;;;28.39;38.54;100427.03;5075962;28;1000;-54
2022/08/28 05:52:38;;;;;;;;;;;;;;;28.44;38.29;100428.09;5069161;28;1216;-47
2022/08/28 05:55:04;;;;;;;;;;;;;;;28.54;37.53;100429.59;5063913;28;1308;-47
2022/08/28 05:57:29;;;;;;;;;;;;;;;28.78;36.95;100430.94;5053794;28;1316;-51
2022/08/28 05:59:54;;;;;;;;;;;;;;;28.92;37.14;100433.72;5062222;28;1155;-50
2022/08/28 06:02:19;;;;;;;;;;;;;;;28.97;37.20;100428.56;5071897;28;1910;-47
2022/08/28 06:04:46;;;;;;;;;;;;;;;28.89;37.40;100432.25;5060773;28;1169;-51
2022/08/28 06:07:14;;;;;;;;;;;;;;;28.54;37.90;100422.31;5065788;28;1371;-45
2022/08/28 06:09:39;;;;;;;;;;;;;;;28.55;37.84;100431.25;5065960;28;1028;-43
2022/08/28 06:12:04;;;;;;;;;;;;;;;28.53;37.96;100430.66;5070999;28;1244;-50
2022/08/28 06:14:30;;;;;;;;;;;;;;;28.82;37.58;100428.66;5069211;28;954;-50
2022/08/28 06:16:55;;;;;;;;;;;;;;;29.02;37.33;100431.47;5067467;28;1104;-50
2022/08/28 06:19:21;;;;;;;;;;;;;;;29.03;37.14;100432.34;5067463;28;954;-51
2022/08/28 06:21:47;;;;;;;;;;;;;;;29.02;36.96;100433.34;5066996;28;1910;-46
2022/08/28 06:24:12;;;;;;;;;;;;;;;29.07;36.85;100429.00;5065301;28;1481;-49
2022/08/28 06:26:39;;;;;;;;;;;;;;;29.17;36.92;100441.31;5071161;28;1068;-51
2022/08/28 06:29:06;;;;;;;;;;;;;;;29.20;36.92;100436.31;5069337;28;977;-51
2022/08/28 06:31:32;;;;;;;;;;;;;;;29.29;36.99;100430.72;5072701;28;1068;-52
2022/08/28 06:33:57;;;;;;;;;;;;;;;29.31;36.81;100436.75;5066632;28;1147;-49
2022/08/28 06:36:23;;;;;;;;;;;;;;;29.31;36.92;100439.47;5074224;28;997;-49
2022/08/28 06:38:49;;;;;;;;;;;;;;;29.29;36.84;100442.38;5074098;28;1206;-46
2022/08/28 06:41:14;;;;;;;;;;;;;;;29.39;37.32;100441.16;5072573;28;1976;-47
2022/08/28 06:43:39;;;;;;;;;;;;;;;29.43;37.01;100434.25;5058243;28;1481;-49
2022/08/28 06:46:05;;;;;;;;;;;;;;;29.41;36.77;100434.47;5066020;28;1214;-54
2022/08/28 06:48:30;;;;;;;;;;;;;;;29.36;37.15;100434.28;5070399;28;1360;-56
2022/08/28 06:50:57;;;;;;;;;;;;;;;29.09;36.82;100432.31;5074665;28;1151;-48
2022/08/28 06:53:24;;;;;;;;;;;;;;;29.20;35.80;100425.47;5068944;28;933;-48
2022/08/28 06:56:06;;;;;;;;;;;;;;;29.42;36.08;100436.16;5056857;28;933;-52
2022/08/28 06:58:31;;;;;;;;;;;;;;;29.44;36.16;100433.22;5062077;28;886;-52
2022/08/28 07:01:00;;;;;;;;;;;;;;;29.50;36.11;100428.84;5070705;28;1902;-50
2022/08/28 07:03:26;;;;;;;;;;;;;;;29.55;36.19;100435.31;5059888;28;1209;-49
2022/08/28 07:05:54;;;;;;;;;;;;;;;29.59;36.25;100430.38;5068855;28;977;-52
2022/08/28 07:08:19;;;;;;;;;;;;;;;29.62;36.67;100426.38;5070569;28;1151;-53
2022/08/28 07:10:44;;;;;;;;;;;;;;;29.68;35.81;100430.97;5070068;28;1239;-55
2022/08/28 07:13:10;;;;;;;;;;;;;;;29.85;36.31;100433.25;5073029;28;1036;-53
2022/08/28 07:15:37;;;;;;;;;;;;;;;29.83;36.39;100430.75;5078790;28;1120;-51
2022/08/28 07:18:02;;;;;;;;;;;;;;;29.91;36.06;100427.84;5066939;28;1188;-51
2022/08/28 07:20:28;;;;;;;;;;;;;;;30.09;36.24;100429.09;5066333;28;1126;-56
2022/08/28 07:22:53;;;;;;;;;;;;;;;30.14;36.05;100432.00;5067662;28;1961;-53
2022/08/28 07:25:18;;;;;;;;;;;;;;;30.19;36.29;100434.06;5058802;28;1342;-49
2022/08/28 07:27:43;;;;;;;;;;;;;;;30.22;35.83;100438.25;5072132;28;1000;-55
2022/08/28 07:30:11;;;;;;;;;;;;;;;29.93;36.49;100427.63;5073794;28;1079;-56
2022/08/28 07:32:37;;;;;;;;;;;;;;;29.83;36.74;100433.47;5074482;28;1128;-49
2022/08/28 07:35:02;;;;;;;;;;;;;;;29.84;36.90;100431.59;5075613;28;1476;-51
2022/08/28 07:37:28;;;;;;;;;;;;;;;29.94;36.81;100432.03;5072077;28;1123;-58
2022/08/28 07:39:53;;;;;;;;;;;;;;;29.96;36.67;100426.38;5067052;28;1389;-54
2022/08/28 07:45:02;;;;;;;;;;;;;;;29.93;36.93;100423.03;5072823;28;882;-55
2022/08/28 07:47:29;;;;;;;;;;;;;;;29.93;36.68;100428.47;5057144;28;1234;-48
2022/08/28 07:49:54;;;;;;;;;;;;;;;29.94;36.84;100432.88;5073944;28;1028;-56
2022/08/28 07:52:19;;;;;;;;;;;;;;;30.05;36.63;100433.25;5076777;28;1024;-48
2022/08/28 07:54:45;;;;;;;;;;;;;;;30.54;35.88;100431.09;5050340;28;1256;-48
2022/08/28 07:57:10;;;;;;;;;;;;;;;30.78;35.78;100430.56;5058514;28;946;-47
2022/08/28 07:59:36;;;;;;;;;;;;;;;30.90;35.36;100437.00;5067922;28;1017;-50
2022/08/28 08:02:02;;;;;;;;;;;;;;;31.02;35.23;100439.88;5069518;28;1894;-48
2022/08/28 08:04:27;;;;;;;;;;;;;;;31.08;34.87;100440.88;5073615;28;1020;-49
2022/08/28 08:06:52;;;;;;;;;;;;;;;31.14;34.66;100434.59;5052979;28;1119;-48
2022/08/28 08:09:18;;;;;;;;;;;;;;;31.16;34.49;100437.09;5071344;28;946;-53
2022/08/28 08:11:43;;;;;;;;;;;;;;;29.17;37.75;100427.75;5071923;28;1036;-50
2022/08/28 08:14:10;;;;;;;;;;;;;;;25.52;38.92;100425.69;5076715;28;1243;-51
2022/08/28 08:16:37;;;;;;;;;;;;;;;24.03;43.72;100425.25;5077944;28;1076;-52
2022/08/28 08:19:03;;;;;;;;;;;;;;;23.56;44.92;100414.19;5071604;28;1032;-50
2022/08/28 08:21:28;;;;;;;;;;;;;;;23.21;47.00;100415.13;5065985;28;1997;-49
2022/08/28 08:23:54;;;;;;;;;;;;;;;23.89;49.94;100418.72;5072284;28;1012;-52
2022/08/28 08:26:20;;;;;;;;;;;;;;;26.16;40.48;100427.16;5065328;28;1160;-52
2022/08/28 08:28:46;;;;;;;;;;;;;;;24.36;45.96;100424.41;5074094;28;989;-48
2022/08/28 08:31:15;;;;;;;;;;;;;;;23.30;48.65;100418.69;5072693;28;1021;-54
2022/08/28 08:33:44;;;;;;;;;;;;;;;23.00;50.53;100421.78;5071246;28;1047;-48
2022/08/28 08:36:10;;;;;;;;;;;;;;;22.86;51.60;100419.72;5074570;28;1008;-46
2022/08/28 08:38:35;;;;;;;;;;;;;;;22.75;52.13;100413.66;5076283;28;806;-51
2022/08/28 08:41:01;;;;;;;;;;;;;;;23.73;51.74;100407.84;5076660;28;1942;-49
2022/08/28 08:43:30;;;;;;;;;;;;;;;26.09;43.87;100418.13;5073628;28;1103;-50
2022/08/28 08:45:55;;;;;;;;;;;;;;;23.46;48.68;100408.97;5069854;28;988;-49
2022/08/28 08:48:25;;;;;;;;;;;;;;;23.20;54.07;100417.97;5074123;28;1119;-49
2022/08/28 08:50:50;;;;;;;;;;;;;;;25.52;44.61;100415.75;5057918;28;1044;-45
2022/08/28 08:53:24;;;;;;;;;;;;;;;23.91;47.79;100417.53;5074893;28;1131;-49
2022/08/28 08:55:50;;;;;;;;;;;;;;;23.54;53.92;100411.66;5059594;28;993;-53
2022/08/28 08:58:32;;;;;;;;;;;;;;;25.83;44.05;100407.75;5052530;28;1132;-52
2022/08/28 09:01:02;;;;;;;;;;;;;;;23.55;48.38;100410.69;5066908;28;1984;-50
2022/08/28 09:03:48;;;;;;;;;;;;;;;23.64;51.88;100403.44;5074923;28;1127;-47
2022/08/28 09:06:25;;;;;;;;;;;;;;;25.96;45.13;100407.97;5075994;28;1257;-48
2022/08/28 09:08:58;;;;;;;;;;;;;;;23.20;48.96;100408.09;5073311;28;1127;-50
2022/08/28 09:11:37;;;;;;;;;;;;;;;24.58;47.61;100409.34;5055857;28;1232;-51
2022/08/28 09:14:02;;;;;;;;;;;;;;;24.91;46.17;100408.38;5066971;28;925;-50
2022/08/28 09:16:30;;;;;;;;;;;;;;;23.00;49.74;100408.38;5071579;28;997;-51
2022/08/28 09:18:56;;;;;;;;;;;;;;;23.18;54.38;100409.25;5069779;28;1048;-49
2022/08/28 09:21:25;;;;;;;;;;;;;;;25.59;44.74;100407.75;5072706;28;1980;-50
2022/08/28 09:23:53;;;;;;;;;;;;;;;23.38;48.61;100406.25;5069200;28;914;-52
2022/08/28 09:26:22;;;;;;;;;;;;;;;23.12;54.14;100411.59;5074091;28;1072;-48
2022/08/28 09:28:57;;;;;;;;;;;;;;;25.53;44.75;100406.66;5075123;28;1004;-53
2022/08/28 09:31:38;;;;;;;;;;;;;;;23.57;48.36;100407.84;5069713;28;961;-50
2022/08/28 09:34:17;;;;;;;;;;;;;;;22.61;52.52;100414.25;5073771;28;1206;-51
2022/08/28 09:36:42;;;;;;;;;;;;;;;25.05;46.08;100407.66;5066893;28;941;-48
2022/08/28 09:39:23;;;;;;;;;;;;;;;23.77;47.89;100408.34;5069774;28;1497;-51
2022/08/28 09:44:32;;;;;;;;;;;;;;;24.99;46.04;100404.84;5068271;28;1055;-45
2022/08/28 09:46:58;;;;;;;;;;;;;;;23.18;51.66;100409.25;5073075;28;1068;-47
2022/08/28 09:49:24;;;;;;;;;;;;;;;25.10;45.59;100406.25;5046811;28;1244;-47
2022/08/28 09:51:50;;;;;;;;;;;;;;;24.05;47.23;100404.44;5058915;28;1401;-49
2022/08/28 09:54:18;;;;;;;;;;;;;;;23.59;52.74;100403.09;5073972;28;1087;-49
2022/08/28 09:56:43;;;;;;;;;;;;;;;25.62;44.53;100404.72;5055723;28;997;-46
2022/08/28 09:59:10;;;;;;;;;;;;;;;23.53;48.45;100403.78;5070425;28;1056;-45
2022/08/28 10:01:35;;;;;;;;;;;;;;;24.11;49.42;100403.75;5072031;28;1884;-45
2022/08/28 10:04:19;;;;;;;;;;;;;;;25.62;45.59;100403.88;5058963;28;1475;-46
2022/08/28 10:06:47;;;;;;;;;;;;;;;23.16;50.48;100396.00;5057914;28;1231;-48
2022/08/28 10:09:25;;;;;;;;;;;;;;;25.13;45.99;100397.84;5059431;28;1201;-53
2022/08/28 10:11:56;;;;;;;;;;;;;;;24.14;47.23;100389.97;5067053;28;1212;-52
2022/08/28 10:14:28;;;;;;;;;;;;;;;23.39;53.26;100389.97;5067023;28;1516;-52
2022/08/28 10:17:00;;;;;;;;;;;;;;;25.58;44.84;100392.63;5067664;28;1188;-51
2022/08/28 10:19:30;;;;;;;;;;;;;;;23.59;48.48;100385.16;5064498;28;1243;-46
2022/08/28 10:22:14;;;;;;;;;;;;;;;24.32;49.02;100386.25;5033312;28;1988;-47
2022/08/28 10:24:58;;;;;;;;;;;;;;;25.07;46.43;100392.16;5049839;28;1296;-46
2022/08/28 10:27:26;;;;;;;;;;;;;;;23.53;53.44;100387.69;5046754;28;1446;-51
2022/08/28 10:30:12;;;;;;;;;;;;;;;25.57;45.71;100385.56;5054701;28;1004;-48
2022/08/28 10:32:55;;;;;;;;;;;;;;;23.63;49.16;100382.97;5063434;28;969;-50
2022/08/28 10:35:21;;;;;;;;;;;;;;;24.83;48.06;100385.03;5061826;28;1231;-50
2022/08/28 10:37:47;;;;;;;;;;;;;;;25.00;46.84;100387.66;5053910;28;1366;-49
2022/08/28 10:40:14;;;;;;;;;;;;;;;23.57;53.54;100387.16;5069808;28;1020;-47
2022/08/28 10:42:52;;;;;;;;;;;;;;;25.54;46.12;100383.25;5053306;28;1918;-48
2022/08/28 10:45:18;;;;;;;;;;;;;;;23.80;48.93;100380.28;5056837;28;996;-47
2022/08/28 10:47:45;;;;;;;;;;;;;;;24.43;49.35;100379.66;5060829;28;1033;-46
2022/08/28 10:50:14;;;;;;;;;;;;;;;25.60;46.18;100377.13;5059363;28;989;-49
2022/08/28 10:53:03;;;;;;;;;;;;;;;23.45;52.07;100380.47;5053746;28;1259;-46
2022/08/28 10:55:33;;;;;;;;;;;;;;;25.53;45.80;100382.41;5056812;28;1498;-44
2022/08/28 10:58:08;;;;;;;;;;;;;;;23.94;48.52;100379.59;5057595;28;1136;-45
2022/08/28 11:00:33;;;;;;;;;;;;;;;24.52;49.04;100381.31;5047654;28;927;-45
2022/08/28 11:03:11;;;;;;;;;;;;;;;25.45;46.31;100377.09;5049551;28;1910;-48
2022/08/28 11:05:38;;;;;;;;;;;;;;;23.48;52.92;100367.56;5061939;28;962;-47
2022/08/28 11:08:05;;;;;;;;;;;;;;;25.42;46.33;100375.56;5054695;28;1001;-48
2022/08/28 11:10:31;;;;;;;;;;;;;;;24.02;48.57;100376.06;5071701;28;1261;-46
2022/08/28 11:12:56;;;;;;;;;;;;;;;24.19;50.16;100373.38;5072311;28;996;-47
2022/08/28 11:15:28;;;;;;;;;;;;;;;25.78;46.73;100382.22;5054933;28;1127;-46
2022/08/28 11:17:59;;;;;;;;;;;;;;;23.27;50.02;100373.41;5076458;28;1008;-49
2022/08/28 11:20:24;;;;;;;;;;;;;;;25.03;47.35;100374.69;5057579;28;1144;-45
2022/08/28 11:23:06;;;;;;;;;;;;;;;24.48;47.87;100373.75;5058242;28;1958;-47
2022/08/28 11:25:46;;;;;;;;;;;;;;;23.93;52.26;100369.00;5059646;28;1188;-49
2022/08/28 11:28:18;;;;;;;;;;;;;;;25.91;46.22;100376.19;5054849;28;1060;-46
2022/08/28 11:30:47;;;;;;;;;;;;;;;23.39;49.89;100365.00;5061847;28;942;-47
2022/08/28 11:33:31;;;;;;;;;;;;;;;24.17;50.15;100372.69;5056216;28;1057;-47
2022/08/28 11:35:57;;;;;;;;;;;;;;;24.89;47.69;100375.44;5066520;28;870;-47
2022/08/28 11:38:40;;;;;;;;;;;;;;;23.14;53.09;100371.16;5075488;28;1001;-47
2022/08/28 11:41:35;;;;;;;;;;;;;;;25.22;47.36;100369.00;5072917;28;1963;-48
2022/08/28 11:44:07;;;;;;;;;;;;;;;23.56;50.02;100373.91;5049213;28;1208;-47
2022/08/28 11:46:33;;;;;;;;;;;;;;;23.89;52.61;100368.50;5066289;28;1040;-50
2022/08/28 11:48:59;;;;;;;;;;;;;;;25.73;45.99;100371.16;5069901;28;910;-44
2022/08/28 11:51:45;;;;;;;;;;;;;;;23.46;51.62;100366.88;5072732;28;1123;-46
2022/08/28 11:54:29;;;;;;;;;;;;;;;24.22;50.94;100367.66;5076506;28;972;-49
2022/08/28 11:57:07;;;;;;;;;;;;;;;24.83;48.83;100383.19;5076908;28;1040;-45
2022/08/28 11:59:32;;;;;;;;;;;;;;;23.78;54.46;100369.72;5072124;28;1139;-47
2022/08/28 12:02:16;;;;;;;;;;;;;;;25.62;47.12;100367.03;5078611;28;1961;-43
2022/08/28 12:04:41;;;;;;;;;;;;;;;23.39;51.28;100368.50;5070540;28;929;-44
2022/08/28 12:07:10;;;;;;;;;;;;;;;24.90;49.35;100371.72;5068573;28;1005;-47
2022/08/28 12:09:41;;;;;;;;;;;;;;;24.65;49.14;100369.16;5073212;28;998;-44
2022/08/28 12:12:10;;;;;;;;;;;;;;;23.96;53.86;100357.94;5069871;28;1004;-47
2022/08/28 12:14:39;;;;;;;;;;;;;;;25.82;47.03;100361.13;5067270;28;1204;-46
2022/08/28 12:17:14;;;;;;;;;;;;;;;23.47;51.27;100365.84;5072132;28;1119;-45
2022/08/28 12:19:41;;;;;;;;;;;;;;;25.01;49.19;100360.56;5071447;28;1000;-49
2022/08/28 12:22:10;;;;;;;;;;;;;;;24.51;49.52;100350.06;5075277;28;1895;-47
2022/08/28 12:24:35;;;;;;;;;;;;;;;23.66;55.95;100346.88;5075438;28;879;-46
2022/08/28 12:27:01;;;;;;;;;;;;;;;25.61;47.36;100359.13;5060328;28;1088;-44
2022/08/28 12:29:29;;;;;;;;;;;;;;;23.70;50.94;100349.09;5071999;28;957;-49
2022/08/28 12:32:13;;;;;;;;;;;;;;;24.81;50.23;100355.63;5065878;28;949;-50
2022/08/28 12:34:38;;;;;;;;;;;;;;;24.65;49.74;100351.19;5072195;28;985;-52
2022/08/28 12:37:04;;;;;;;;;;;;;;;23.90;55.70;100350.56;5063475;28;1297;-47
2022/08/28 12:39:30;;;;;;;;;;;;;;;25.64;47.26;100356.91;5072532;28;1170;-54
2022/08/28 12:41:56;;;;;;;;;;;;;;;23.60;50.57;100351.09;5071553;28;1961;-46
2022/08/28 12:44:24;;;;;;;;;;;;;;;24.53;49.72;100355.25;5067544;28;1047;-48
2022/08/28 12:46:50;;;;;;;;;;;;;;;24.99;48.39;100359.09;5070524;28;985;-44
2022/08/28 12:49:25;;;;;;;;;;;;;;;23.40;53.20;100358.66;5052809;28;965;-42
2022/08/28 12:51:57;;;;;;;;;;;;;;;25.03;48.11;100353.16;5072229;28;981;-50
2022/08/28 12:54:23;;;;;;;;;;;;;;;24.09;49.02;100349.31;5052949;28;1257;-49
2022/08/28 12:56:48;;;;;;;;;;;;;;;24.26;50.62;100352.00;5073577;28;973;-50
2022/08/28 12:59:23;;;;;;;;;;;;;;;25.70;47.17;100352.66;5075353;28;1056;-54